Latest Weather Observations for South Johnstone

IDQ60801

Issued at 7:35 pm EST Wednesday 23 April 2014 (issued every 30 minutes, with the page automatically refreshed every 10 minutes)

About weather observations | Map of weather stations | Latest weather observations for QLD | Other Formats
Station Details ID: 032037 Name: SOUTH JOHNSTONE EXP STN Lat: -17.61 Lon: 146.00 Height: 18.3 m
Data from the previous 72 hours. | See also: Recent months at South Johnstone
Date/Time
EST
Temp
°C
App
Temp
°C
Dew
Point
Rel
Hum
%
Delta-T
°C
Wind Press
QNH
hPa
Press
MSL
hPa
Rain
since 9 am
mm
Dir
 
Spd
km/h
Gust
km/h
Spd
kts
Gust
kts
23/07:30pm 24.8 27.5 22.9 89 1.3 SSW 13 20 7 11 1012.8 - 6.6
23/07:00pm 24.3 27.9 23.1 93 0.8 SW 9 17 5 9 1012.5 - 6.6
23/06:30pm 24.1 28.1 23.1 94 0.7 WSW 7 11 4 6 1012.3 - 6.4
23/06:00pm 24.3 26.6 22.8 91 1.0 SSW 15 24 8 13 1012.1 1012.0 6.4
23/05:30pm 25.9 28.9 22.6 82 2.2 S 11 19 6 10 1012.0 - 2.2
23/05:00pm 26.0 29.0 22.7 82 2.2 S 11 17 6 9 1011.8 - 2.2
23/04:30pm 26.2 29.4 23.0 82 2.2 S 11 19 6 10 1011.4 - 2.2
23/04:00pm 26.5 28.8 22.7 79 2.6 SSE 15 24 8 13 1011.2 - 2.2
23/03:30pm 26.7 28.2 22.7 79 2.7 S 19 26 10 14 1011.4 - 2.2
23/03:00pm 26.8 29.4 23.3 81 2.4 SSE 15 22 8 12 1011.6 1011.5 2.2
23/02:30pm 26.6 28.2 22.8 79 2.6 SSE 19 28 10 15 1011.6 - 2.2
23/02:00pm 27.1 28.4 23.3 80 2.6 SE 22 28 12 15 1011.7 - 2.2
23/01:30pm 26.1 27.7 23.2 84 2.0 SSE 20 32 11 17 1012.0 - 2.2
23/01:00pm 26.3 29.1 23.7 85 1.8 S 15 26 8 14 1012.4 - 2.2
23/12:30pm 26.2 29.4 23.7 86 1.7 SSE 13 24 7 13 1012.9 - 2.2
23/12:00pm 25.9 29.4 24.2 90 1.2 SSE 13 20 7 11 1013.3 1013.2 2.0
23/11:30am 26.1 29.4 23.9 88 1.5 SSE 13 20 7 11 1013.9 - 2.0
23/11:00am 25.2 29.4 23.4 90 1.2 S 7 17 4 9 1014.3 - 1.4
23/10:30am 26.0 28.9 23.2 84 1.9 S 13 22 7 12 1014.4 - 0.8
23/10:00am 24.6 28.2 23.0 91 1.1 SSE 9 13 5 7 1014.4 - 0.8
23/09:30am 25.8 28.9 22.8 83 2.0 SSE 11 17 6 9 1014.4 - 0.0
23/09:00am 26.2 28.9 22.8 81 2.3 S 13 20 7 11 1014.2 1014.1 4.4
23/08:30am 25.4 27.1 22.3 83 2.1 S 17 30 9 16 1014.1 - 4.4
23/08:00am 24.8 26.7 22.1 85 1.8 S 15 26 8 14 1013.7 - 4.4
23/07:30am 24.7 25.7 21.8 84 1.9 SSW 19 32 10 17 1013.9 - 4.4
23/07:00am 24.3 25.4 21.9 86 1.6 SSW 19 28 10 15 1013.4 - 4.4
23/06:30am 23.8 26.1 22.1 90 1.1 SSW 13 20 7 11 1013.1 - 4.4
23/06:00am 24.2 26.6 22.3 89 1.3 S 13 22 7 12 1012.9 1012.8 4.2
23/05:30am 23.8 27.0 22.3 91 1.0 S 9 19 5 10 1012.8 - 4.2
23/05:00am 24.4 27.2 22.3 88 1.4 SSW 11 15 6 8 1012.7 - 4.0
23/04:30am 24.3 27.9 22.4 89 1.3 S 7 19 4 10 1012.7 - 4.0
23/04:00am 24.2 27.4 22.3 89 1.3 S 9 15 5 8 1012.7 - 4.0
23/03:30am 24.3 27.5 22.4 89 1.3 S 9 13 5 7 1012.7 - 4.0
23/03:00am 24.1 27.7 22.3 90 1.2 S 7 13 4 7 1012.9 1012.8 4.0
23/02:30am 23.8 27.5 22.5 92 0.9 S 7 13 4 7 1013.1 - 3.8
23/02:00am 23.6 27.5 22.6 94 0.7 S 6 9 3 5 1013.5 - 3.8
23/01:30am 22.9 27.0 22.3 96 0.4 W 4 7 2 4 1013.9 - 3.8
23/01:00am 23.1 28.0 22.4 96 0.5 CALM 0 0 0 0 1014.3 - 3.6
23/12:30am 23.1 27.6 22.3 95 0.5 ESE 2 7 1 4 1014.9 - 3.4
23/12:00am 23.7 27.8 22.2 91 1.0 SSW 4 13 2 7 1015.0 1014.9 1.8
 
Date/Time
EST
Temp
°C
App
Temp
°C
Dew
Point
Rel
Hum
%
Delta-T
°C
Wind Press
QNH
hPa
Press
MSL
hPa
Rain
since 9 am
mm
Dir
 
Spd
km/h
Gust
km/h
Spd
kts
Gust
kts
22/11:30pm 23.7 27.4 22.2 91 1.0 SE 6 11 3 6 1015.1 - 1.8
22/11:00pm 23.9 27.4 21.8 88 1.4 SSW 6 9 3 5 1015.1 - 1.8
22/10:30pm 24.4 27.2 21.5 84 1.9 S 9 15 5 8 1015.3 - 1.8
22/10:00pm 24.7 27.0 21.4 82 2.2 SSW 11 17 6 9 1015.5 - 1.8
22/09:30pm 24.6 26.8 21.1 81 2.3 SSW 11 15 6 8 1015.7 - 1.8
22/09:00pm 24.4 26.2 21.2 82 2.1 SSW 13 22 7 12 1015.9 1015.8 1.8
22/08:30pm 24.2 26.6 21.5 85 1.8 SSW 11 20 6 11 1015.8 - 1.8
22/08:00pm 24.1 27.0 21.7 86 1.6 S 9 15 5 8 1015.4 - 1.8
22/07:30pm 24.1 26.4 22.0 88 1.4 S 13 22 7 12 1015.2 - 1.8
22/07:00pm 24.2 26.6 22.3 89 1.3 SSW 13 19 7 10 1014.9 - 1.8
22/06:30pm 24.1 28.3 22.5 91 1.1 SW 4 9 2 5 1014.7 - 1.6
22/06:00pm 25.0 28.1 21.5 81 2.3 SSW 7 11 4 6 1014.6 1014.5 1.6
22/05:30pm 25.1 27.9 21.6 81 2.3 SSW 9 13 5 7 1014.5 - 1.6
22/05:00pm 25.1 28.3 21.6 81 2.3 S 7 11 4 6 1014.3 - 1.6
22/04:30pm 24.8 27.1 21.3 81 2.3 S 11 19 6 10 1014.0 - 1.6
22/04:00pm 24.8 28.0 21.6 82 2.1 S 7 13 4 7 1014.0 - 1.6
22/03:30pm 25.1 26.6 22.0 83 2.1 SE 17 28 9 15 1013.9 - 1.6
22/03:00pm 25.7 28.2 21.8 79 2.6 SSE 11 22 6 12 1013.9 1013.8 1.6
22/02:30pm 26.2 28.4 21.9 77 2.9 SSE 13 22 7 12 1014.0 - 1.6
22/02:00pm 26.0 28.7 22.1 79 2.6 SSE 11 17 6 9 1014.2 - 1.6
22/01:30pm 25.3 27.0 21.7 80 2.4 S 15 22 8 12 1014.5 - 1.6
22/01:00pm 25.8 28.1 22.1 80 2.5 SE 13 20 7 11 1014.9 - 1.6
22/12:30pm 25.5 28.3 21.6 79 2.6 SSE 9 13 5 7 1015.3 - 1.6
22/12:00pm 23.8 25.6 21.8 88 1.3 E 15 30 8 16 1015.7 1015.6 1.6
22/11:30am 26.6 29.6 22.0 76 3.1 SSE 9 17 5 9 1016.1 - 0.0
22/11:00am 26.6 29.8 22.3 77 2.9 S 9 13 5 7 1016.7 - 0.0
22/10:30am 25.8 29.0 21.6 77 2.8 S 7 13 4 7 1017.2 - 0.0
22/10:00am 24.6 27.8 21.7 84 1.9 SW 7 11 4 6 1017.3 - 0.0
22/09:30am 23.4 27.5 22.3 93 0.7 W 4 11 2 6 1017.4 - 0.0
22/09:00am 23.1 26.8 22.2 95 0.6 W 6 9 3 5 1017.1 1017.0 19.4
22/08:30am 23.3 27.2 21.9 92 0.9 SSW 4 9 2 5 1016.7 - 19.4
22/08:00am 23.5 25.7 21.2 87 1.5 S 11 17 6 9 1016.5 - 19.4
22/07:30am 22.9 24.7 21.1 89 1.2 SSW 13 15 7 8 1016.4 - 19.2
22/07:00am 22.8 25.1 21.3 91 1.0 S 11 19 6 10 1016.2 - 19.2
22/06:30am 22.5 23.7 21.4 93 0.7 S 17 22 9 12 1015.9 - 19.0
22/06:00am 22.7 24.2 21.2 91 1.0 S 15 24 8 13 1015.7 1015.6 19.0
22/05:30am 22.3 26.0 21.5 95 0.5 SSE 4 9 2 5 1015.4 - 18.8
22/05:00am 22.3 25.1 21.5 95 0.5 S 9 13 5 7 1015.2 - 18.0
22/04:30am 22.3 25.5 21.7 96 0.4 S 7 13 4 7 1015.1 - 16.8
22/04:00am 22.3 25.6 21.8 97 0.3 SE 7 11 4 6 1015.2 - 15.4
22/03:30am 22.3 25.2 21.7 96 0.4 SE 9 15 5 8 1015.4 - 14.8
22/03:00am 22.4 25.6 21.6 95 0.5 SSE 7 13 4 7 1015.4 1015.3 13.8
22/02:30am 22.2 24.1 21.4 95 0.5 S 13 19 7 10 1015.8 - 13.6
22/02:00am 22.2 24.2 21.6 96 0.4 S 13 20 7 11 1015.8 - 13.2
22/01:30am 22.0 24.6 21.2 95 0.5 SSE 9 17 5 9 1016.2 - 11.6
22/01:00am 22.5 24.4 21.3 93 0.8 SSW 13 20 7 11 1016.1 - 10.0
22/12:30am 22.6 27.0 22.1 97 0.3 SE 2 7 1 4 1016.6 - 8.6
22/12:00am 22.5 26.8 21.9 96 0.4 SSW 2 7 1 4 1016.8 1016.7 7.4
 
Date/Time
EST
Temp
°C
App
Temp
°C
Dew
Point
Rel
Hum
%
Delta-T
°C
Wind Press
QNH
hPa
Press
MSL
hPa
Rain
since 9 am
mm
Dir
 
Spd
km/h
Gust
km/h
Spd
kts
Gust
kts
21/11:30pm 22.6 26.9 22.0 96 0.4 W 2 7 1 4 1016.8 - 3.4
21/11:00pm 22.8 26.3 22.2 96 0.4 WSW 7 9 4 5 1016.7 - 3.2
21/10:30pm 22.8 27.5 22.0 95 0.5 CALM 0 0 0 0 1016.8 - 2.8
21/10:00pm 22.9 27.6 22.0 95 0.6 CALM 0 0 0 0 1016.7 - 2.8
21/09:30pm 23.5 26.4 21.7 90 1.2 ESE 9 13 5 7 1016.7 - 2.4
21/09:00pm 23.7 25.9 20.3 81 2.2 S 9 19 5 10 1016.6 1016.5 2.4
21/08:30pm 24.2 26.4 21.8 86 1.6 S 13 19 7 10 1016.6 - 2.0
21/08:00pm 24.0 26.0 21.6 86 1.6 S 13 19 7 10 1016.5 - 1.8
21/07:30pm 22.7 26.3 21.3 92 0.9 SSW 4 7 2 4 1016.3 - 1.8
21/07:00pm 22.8 26.4 21.3 91 1.0 WSW 4 11 2 6 1016.0 - 1.6
21/06:30pm 23.1 24.8 21.0 88 1.4 SSW 13 19 7 10 1015.8 - 1.4
21/06:00pm 22.9 26.1 21.2 90 1.1 S 6 11 3 6 1015.6 1015.5 0.8
21/05:30pm 22.8 26.1 21.4 92 0.9 SW 6 9 3 5 1015.2 - 0.6
21/05:00pm 23.3 27.0 21.5 90 1.2 SE 4 9 2 5 1015.1 - 0.2
21/04:30pm 23.8 25.9 20.9 84 1.9 S 11 17 6 9 1014.7 - 0.2
21/04:00pm 23.7 25.4 20.9 84 1.8 S 13 19 7 10 1014.5 - 0.2
21/03:30pm 23.2 24.6 21.8 92 0.9 SE 17 28 9 15 1014.9 - 0.0
21/03:00pm 24.2 25.2 21.8 86 1.6 E 19 30 10 16 1014.6 1014.5 0.0
21/02:30pm 26.5 27.7 19.9 67 4.3 SE 13 22 7 12 1014.3 - 0.0
21/02:00pm 26.6 27.5 20.0 67 4.3 ESE 15 22 8 12 1014.3 - 0.0
21/01:30pm 26.8 27.0 19.4 64 4.8 SE 17 26 9 14 1014.6 - 0.0
21/01:00pm 26.9 27.9 20.2 66 4.4 SE 15 24 8 13 1014.8 - 0.0
21/12:30pm 26.6 28.8 21.2 72 3.6 SE 11 20 6 11 1015.0 - 0.0
21/12:00pm 26.4 26.6 20.1 68 4.1 SE 19 30 10 16 1015.5 1015.4 0.0
21/11:30am 27.3 27.7 19.8 63 4.9 ESE 17 24 9 13 1015.9 - 0.0
21/11:00am 28.0 27.7 19.2 58 5.7 ESE 19 28 10 15 1016.3 - 0.0
21/10:30am 27.3 27.4 19.1 61 5.3 ESE 17 26 9 14 1016.7 - 0.0
21/10:00am 28.1 27.7 18.8 57 6.0 ESE 19 28 10 15 1016.8 - 0.0
21/09:30am 26.9 26.4 18.6 60 5.3 ESE 19 30 10 16 1016.8 - 0.0
21/09:00am 27.1 28.1 19.5 63 4.9 ESE 13 20 7 11 1016.6 1016.5 0.0
21/08:30am 25.2 29.2 20.6 75 3.0 CALM 0 0 0 0 1016.5 - 0.0
21/08:00am 22.8 27.0 21.0 89 1.2 CALM 0 0 0 0 1016.5 - 0.0
21/07:30am 21.9 26.1 21.0 95 0.6 CALM 0 0 0 0 1016.2 - 0.0
21/07:00am 21.5 25.4 20.4 93 0.7 CALM 0 0 0 0 1015.9 - 0.0
21/06:30am 21.2 25.1 20.3 95 0.6 CALM 0 0 0 0 1015.6 - 0.0
21/06:00am 21.1 24.9 20.2 95 0.6 CALM 0 0 0 0 1015.2 1015.1 0.0
21/05:30am 21.1 24.9 20.2 95 0.6 CALM 0 0 0 0 1015.0 - 0.0
21/05:00am 20.9 24.7 20.1 95 0.5 CALM 0 0 0 0 1014.8 - 0.0
21/04:30am 21.0 24.4 20.2 95 0.5 W 2 7 1 4 1014.4 - 0.0
21/04:00am 21.1 24.9 20.2 95 0.6 CALM 0 0 0 0 1014.3 - 0.0
21/03:30am 21.4 25.4 20.5 95 0.6 CALM 0 0 0 0 1014.2 - 0.0
21/03:00am 21.5 25.4 20.4 93 0.7 CALM 0 0 0 0 1014.3 1014.2 0.0
21/02:30am 21.2 25.1 20.3 95 0.6 CALM 0 0 0 0 1014.2 - 0.0
21/02:00am 21.0 24.3 19.9 93 0.7 WNW 2 7 1 4 1014.4 - 0.0
21/01:30am 20.9 24.6 20.0 95 0.6 CALM 0 0 0 0 1014.7 - 0.0
21/01:00am 21.0 24.3 19.9 93 0.7 SW 2 9 1 5 1015.2 - 0.0
21/12:30am 20.7 23.1 19.6 93 0.7 NW 6 9 3 5 1015.2 - 0.0
21/12:00am 20.8 23.1 19.5 92 0.8 NW 6 7 3 4 1015.6 1015.5 0.0
 
Date/Time
EST
Temp
°C
App
Temp
°C
Dew
Point
Rel
Hum
%
Delta-T
°C
Wind Press
QNH
hPa
Press
MSL
hPa
Rain
since 9 am
mm
Dir
 
Spd
km/h
Gust
km/h
Spd
kts
Gust
kts
20/11:30pm 21.0 24.1 19.6 92 0.9 NNW 2 6 1 3 1015.9 - 0.0
20/11:00pm 21.0 23.7 19.4 90 1.0 NW 4 9 2 5 1016.0 - 0.0
20/10:30pm 20.8 23.4 19.2 90 1.0 WNW 4 9 2 5 1016.0 - 0.0
20/10:00pm 21.0 23.6 19.3 90 1.1 WNW 4 9 2 5 1016.1 - 0.0
20/09:30pm 21.1 24.5 19.4 90 1.1 CALM 0 6 0 3 1016.3 - 0.0
20/09:00pm 21.5 23.7 19.3 87 1.4 W 6 9 3 5 1016.5 1016.4 0.0
20/08:30pm 21.7 24.4 19.5 87 1.4 WNW 4 7 2 4 1016.3 - 0.0
20/08:00pm 22.3 25.0 19.5 84 1.8 WSW 4 9 2 5 1015.9 - 0.0

Other Formats:

Comma delimited format used in spreadsheet applications
http://www.bom.gov.au/fwo/IDQ60801/IDQ60801.95292.axf

JavaScript Object Notation format (JSON) in row-major order
http://www.bom.gov.au/fwo/IDQ60801/IDQ60801.95292.json